Time;durP1;ratioP1;P1;durP2;ratioP2;P2;SDS_P1;SDS_P2;PMS_P1;PMS_P2;Temp;Humidity;BMP_temperature;BMP_pressure;BME280_temperature;BME280_humidity;BME280_pressure;Samples;Min_cycle;Max_cycle;Signal;HPM_P1;HPM_P2
2021/10/12 00:02:05;;;;;;;31.02;13.43;;;;;;;9.26;56.32;101122.59;1736695;81;25803;-64
2021/10/12 00:04:32;;;;;;;28.00;13.50;;;;;;;9.21;56.14;101124.30;1735955;81;25760;-63
2021/10/12 00:06:59;;;;;;;29.25;13.70;;;;;;;9.19;56.14;101123.55;1732852;81;26327;-64
2021/10/12 00:09:26;;;;;;;34.83;13.65;;;;;;;9.17;56.03;101120.63;1741352;81;25830;-64
2021/10/12 00:11:53;;;;;;;28.95;12.33;;;;;;;9.15;56.01;101115.34;1748825;81;27478;-64
2021/10/12 00:14:21;;;;;;;23.83;13.30;;;;;;;9.13;56.00;101111.08;1752777;80;25721;-64
2021/10/12 00:16:48;;;;;;;30.32;12.47;;;;;;;9.11;55.93;101107.19;1732204;81;25727;-64
2021/10/12 00:19:15;;;;;;;30.48;13.58;;;;;;;9.06;55.76;101108.88;1754512;81;26463;-64
2021/10/12 00:21:42;;;;;;;29.20;13.13;;;;;;;9.03;55.82;101105.08;1731802;82;25692;-64
2021/10/12 00:24:11;;;;;;;26.65;13.43;;;;;;;9.00;55.88;101099.09;1731662;81;28266;-64
2021/10/12 00:26:38;;;;;;;31.97;12.15;;;;;;;8.95;56.10;101098.61;1731518;82;26373;-65
2021/10/12 00:29:05;;;;;;;27.58;13.30;;;;;;;8.90;56.30;101101.14;1766721;80;25695;-64
2021/10/12 00:31:32;;;;;;;30.50;13.38;;;;;;;8.86;56.29;101097.47;1766512;80;25686;-65
2021/10/12 00:33:59;;;;;;;36.20;13.20;;;;;;;8.81;56.37;101095.13;1766936;79;25810;-64
2021/10/12 00:36:25;;;;;;;22.42;12.78;;;;;;;8.75;56.61;101088.91;1787452;78;27360;-63
2021/10/12 00:38:52;;;;;;;29.90;13.25;;;;;;;8.69;56.37;101087.54;1763026;79;25827;-63
2021/10/12 00:41:21;;;;;;;32.00;13.83;;;;;;;8.63;56.67;101088.02;1731204;82;25799;-63
2021/10/12 00:43:49;;;;;;;28.77;12.75;;;;;;;8.58;56.96;101084.34;1741050;81;26425;-63
2021/10/12 00:46:16;;;;;;;22.98;12.20;;;;;;;8.54;57.24;101079.31;1706266;84;25854;-64
2021/10/12 00:48:43;;;;;;;28.42;12.30;;;;;;;8.49;57.25;101073.43;1740913;81;27507;-64
2021/10/12 00:51:11;;;;;;;29.50;13.40;;;;;;;8.47;57.42;101070.87;1742467;82;25882;-64
2021/10/12 00:53:39;;;;;;;28.55;13.13;;;;;;;8.43;57.40;101066.20;1749390;81;25799;-63
2021/10/12 00:56:08;;;;;;;31.12;12.13;;;;;;;8.37;57.44;101061.30;1752992;81;25774;-64
2021/10/12 00:58:36;;;;;;;30.85;12.37;;;;;;;8.33;57.55;101055.78;1729288;81;25869;-63
2021/10/12 01:01:03;;;;;;;27.85;13.05;;;;;;;8.32;57.50;101062.61;1751848;80;28745;-65
2021/10/12 01:03:30;;;;;;;25.80;13.40;;;;;;;8.29;57.86;101061.87;1743007;81;25872;-65
2021/10/12 01:05:58;;;;;;;28.55;13.03;;;;;;;8.29;57.83;101062.37;1737127;82;25835;-64
2021/10/12 01:08:28;;;;;;;36.30;12.35;;;;;;;8.29;57.83;101055.16;1725201;82;25773;-65
2021/10/12 01:10:55;;;;;;;26.97;13.00;;;;;;;8.29;57.79;101048.96;1732520;81;25715;-64
2021/10/12 01:13:23;;;;;;;25.60;13.30;;;;;;;8.29;57.82;101047.13;1738807;81;27453;-65
2021/10/12 01:15:52;;;;;;;27.77;13.00;;;;;;;8.29;58.06;101045.78;1749250;81;25787;-64
2021/10/12 01:18:20;;;;;;;31.70;13.45;;;;;;;8.29;57.94;101040.92;1755970;81;25756;-64
2021/10/12 01:20:46;;;;;;;28.75;12.33;;;;;;;8.31;58.13;101034.94;1754427;81;25770;-64
2021/10/12 01:23:14;;;;;;;27.42;12.40;;;;;;;8.30;58.54;101027.86;1750470;81;25754;-64
2021/10/12 01:25:41;;;;;;;27.58;11.73;;;;;;;8.33;58.69;101028.14;1755185;81;27450;-64
2021/10/12 01:28:09;;;;;;;26.87;11.48;;;;;;;8.38;58.91;101027.30;1747820;81;25937;-64
2021/10/12 01:30:37;;;;;;;28.65;11.68;;;;;;;8.43;59.11;101025.98;1754659;81;25793;-64
2021/10/12 01:33:07;;;;;;;31.85;12.45;;;;;;;8.50;59.15;101019.70;1758061;80;25783;-63
2021/10/12 01:35:34;;;;;;;25.97;11.53;;;;;;;8.57;59.33;101018.27;1753847;80;25800;-64
2021/10/12 01:38:01;;;;;;;29.10;12.28;;;;;;;8.66;59.36;101015.34;1738533;81;27850;-64
2021/10/12 01:40:28;;;;;;;28.02;11.78;;;;;;;8.74;59.20;101022.81;1736856;82;25790;-64
2021/10/12 01:42:58;;;;;;;20.12;11.10;;;;;;;8.81;59.12;101017.34;1736302;81;25738;-63
2021/10/12 01:45:26;;;;;;;24.65;11.22;;;;;;;8.88;59.25;101015.05;1733643;82;25888;-63
2021/10/12 01:47:53;;;;;;;27.10;12.65;;;;;;;8.92;59.13;101005.77;1736018;82;25759;-63
2021/10/12 01:50:21;;;;;;;26.55;12.28;;;;;;;8.87;59.06;101007.50;1737970;81;27550;-64
2021/10/12 01:52:48;;;;;;;22.87;12.60;;;;;;;8.86;58.84;101005.78;1765359;81;25819;-64
2021/10/12 01:55:21;;;;;;;38.05;13.28;;;;;;;8.84;58.63;101011.75;1766462;81;25834;-64
2021/10/12 01:57:48;;;;;;;34.08;13.20;;;;;;;8.83;58.41;101011.38;1766373;79;25762;-64
2021/10/12 02:00:16;;;;;;;31.02;13.18;;;;;;;8.83;58.30;101006.01;1758341;81;25844;-63
2021/10/12 02:02:44;;;;;;;22.35;12.10;;;;;;;8.81;58.36;101010.63;1749528;81;27425;-64
2021/10/12 02:05:14;;;;;;;27.32;12.85;;;;;;;8.81;58.27;101001.74;1757368;81;25764;-64
2021/10/12 02:07:41;;;;;;;30.30;13.80;;;;;;;8.82;58.06;101003.45;1757805;81;25776;-64
2021/10/12 02:10:09;;;;;;;30.43;12.53;;;;;;;8.81;58.17;100996.37;1725229;82;25862;-65
2021/10/12 02:12:36;;;;;;;30.17;14.03;;;;;;;8.80;58.23;100993.33;1729273;81;25720;-64
2021/10/12 02:15:07;;;;;;;27.60;13.40;;;;;;;8.75;58.18;100994.52;1741901;81;27488;-65
2021/10/12 02:17:34;;;;;;;24.63;12.70;;;;;;;8.72;58.19;100993.44;1764394;81;25725;-63
2021/10/12 02:20:01;;;;;;;35.68;13.98;;;;;;;8.70;58.13;100996.72;1767160;81;25828;-63
2021/10/12 02:22:28;;;;;;;27.73;13.15;;;;;;;8.69;58.16;101000.37;1759762;81;25739;-64
2021/10/12 02:24:55;;;;;;;31.07;13.58;;;;;;;8.68;58.23;100992.45;1739877;81;25739;-64
2021/10/12 02:27:23;;;;;;;29.98;14.25;;;;;;;8.66;58.18;100987.19;1740881;82;27477;-64
2021/10/12 02:29:50;;;;;;;37.90;14.15;;;;;;;8.66;58.07;100991.20;1741329;82;25765;-64
2021/10/12 02:32:18;;;;;;;35.70;15.03;;;;;;;8.67;58.01;100983.53;1735682;82;25703;-63
2021/10/12 02:34:45;;;;;;;28.40;14.75;;;;;;;8.65;58.16;100977.93;1739964;80;26072;-64
2021/10/12 02:37:12;;;;;;;25.25;13.90;;;;;;;8.65;58.12;100981.45;1727911;82;25779;-64
2021/10/12 02:39:40;;;;;;;33.60;14.28;;;;;;;8.65;58.18;100981.45;1733945;82;27529;-64
2021/10/12 02:42:10;;;;;;;28.55;14.07;;;;;;;8.65;58.25;100977.42;1730016;82;26560;-64
2021/10/12 02:44:36;;;;;;;35.38;13.75;;;;;;;8.65;58.37;100974.75;1726740;82;26242;-64
2021/10/12 02:47:06;;;;;;;31.15;14.87;;;;;;;8.67;58.47;100970.62;1726080;83;25787;-63
2021/10/12 02:49:33;;;;;;;26.77;15.15;;;;;;;8.64;58.40;100973.53;1719937;83;25797;-64
2021/10/12 02:52:00;;;;;;;37.75;15.00;;;;;;;8.61;58.58;100974.13;1725124;82;28770;-63
2021/10/12 02:54:27;;;;;;;31.48;13.62;;;;;;;8.62;58.56;100972.32;1727854;82;25747;-64
2021/10/12 02:56:54;;;;;;;28.42;14.35;;;;;;;8.61;58.65;100971.45;1727747;82;25798;-64
2021/10/12 02:59:21;;;;;;;33.58;13.43;;;;;;;8.62;58.67;100966.96;1750088;81;25831;-63
2021/10/12 03:01:48;;;;;;;34.70;14.50;;;;;;;8.61;58.71;100966.09;1729828;82;25895;-64
2021/10/12 03:04:15;;;;;;;28.05;14.30;;;;;;;8.62;58.88;100965.62;1733649;82;27455;-64
2021/10/12 03:06:43;;;;;;;28.70;14.40;;;;;;;8.56;59.59;100968.28;1732952;82;26186;-62
2021/10/12 03:09:10;;;;;;;30.35;12.58;;;;;;;8.52;59.83;100964.11;1724911;82;25749;-64
2021/10/12 03:11:37;;;;;;;32.03;13.18;;;;;;;8.54;59.72;100967.54;1735268;81;25734;-63
2021/10/12 03:14:04;;;;;;;27.42;13.65;;;;;;;8.57;59.88;100970.46;1731617;81;26495;-63
2021/10/12 03:16:30;;;;;;;32.30;13.45;;;;;;;8.59;60.04;100963.16;1729456;82;27518;-63
2021/10/12 03:18:57;;;;;;;34.33;14.10;;;;;;;8.64;60.30;100967.70;1739214;81;25724;-63
2021/10/12 03:21:31;;;;;;;33.85;12.53;;;;;;;8.70;59.82;100968.55;1735670;82;25786;-63
2021/10/12 03:23:54;;;;;;;31.20;13.30;;;;;;;8.80;59.85;100964.66;1735492;82;26467;-63
2021/10/12 03:26:21;;;;;;;35.25;13.68;;;;;;;8.87;59.71;100963.23;1729531;82;26279;-64
2021/10/12 03:28:47;;;;;;;36.83;12.95;;;;;;;8.96;59.64;100963.48;1736135;82;27456;-64
2021/10/12 03:31:14;;;;;;;33.02;13.48;;;;;;;9.01;59.61;100958.59;1735556;82;25941;-63
2021/10/12 03:33:41;;;;;;;43.60;14.53;;;;;;;9.07;59.50;100975.53;1731180;81;25763;-64
2021/10/12 03:36:17;;;;;;;34.48;14.73;;;;;;;9.11;59.47;100968.97;1730830;81;26669;-64
2021/10/12 03:38:45;;;;;;;32.10;13.48;;;;;;;9.14;59.46;100966.52;1731738;81;25821;-63
2021/10/12 03:41:12;;;;;;;28.62;13.93;;;;;;;9.19;59.12;100963.84;1726779;82;27441;-64
2021/10/12 03:43:38;;;;;;;36.58;15.85;;;;;;;9.20;58.92;100955.28;1735789;81;25789;-65
2021/10/12 03:46:05;;;;;;;37.33;14.73;;;;;;;9.19;58.72;100961.15;1746183;82;25751;-64
2021/10/12 03:48:34;;;;;;;32.55;14.18;;;;;;;9.19;58.81;100958.94;1745720;82;26465;-64
2021/10/12 03:51:01;;;;;;;36.05;15.32;;;;;;;9.20;58.85;100964.20;1743169;80;26237;-65
2021/10/12 03:53:28;;;;;;;32.05;13.80;;;;;;;9.19;58.67;100965.64;1792870;79;27471;-64
2021/10/12 03:56:23;;;;;;;26.87;14.13;;;;;;;9.18;58.54;100968.00;1775737;79;25969;-66
2021/10/12 03:58:53;;;;;;;30.65;13.98;;;;;;;9.12;58.63;100962.63;1764220;81;25789;-64
2021/10/12 04:01:21;;;;;;;43.80;14.60;;;;;;;9.08;58.75;100967.38;1761804;80;26438;-65
2021/10/12 04:03:49;;;;;;;47.05;18.70;;;;;;;9.06;58.80;100959.06;1759287;81;26232;-64
2021/10/12 04:06:17;;;;;;;34.92;15.15;;;;;;;9.00;58.76;100946.14;1760351;81;28129;-64
2021/10/12 04:08:44;;;;;;;43.33;15.32;;;;;;;8.98;58.72;100942.25;1759765;81;25801;-64
2021/10/12 04:11:11;;;;;;;33.15;14.87;;;;;;;8.97;58.72;100946.38;1762422;80;25710;-64
2021/10/12 04:13:37;;;;;;;36.40;15.18;;;;;;;8.96;58.74;100947.38;1762928;80;26569;-65
2021/10/12 04:16:05;;;;;;;38.78;15.05;;;;;;;8.94;58.75;100951.50;1733010;82;25941;-64
2021/10/12 04:18:32;;;;;;;32.98;14.07;;;;;;;8.89;58.89;100953.20;1751074;81;27996;-63
2021/10/12 04:20:59;;;;;;;27.80;13.25;;;;;;;8.85;58.76;100957.12;1747277;81;25810;-64
2021/10/12 04:23:26;;;;;;;43.13;14.98;;;;;;;8.83;58.89;100956.88;1731316;81;26572;-64
2021/10/12 04:25:53;;;;;;;37.08;15.38;;;;;;;8.81;58.85;100957.48;1727022;82;25848;-64
2021/10/12 04:28:20;;;;;;;36.55;15.00;;;;;;;8.76;59.34;100956.00;1742672;81;25856;-64
2021/10/12 04:30:52;;;;;;;38.55;15.03;;;;;;;8.72;59.28;100953.20;1740298;81;28180;-67
2021/10/12 04:33:23;;;;;;;39.42;15.20;;;;;;;8.72;59.41;100951.87;1726207;81;25848;-64
2021/10/12 04:35:52;;;;;;;31.02;14.45;;;;;;;8.73;59.22;100958.07;1731873;80;25759;-64
2021/10/12 04:38:19;;;;;;;37.17;15.75;;;;;;;8.75;59.42;100957.47;1753635;81;25765;-64
2021/10/12 04:40:46;;;;;;;38.30;14.78;;;;;;;8.73;59.17;100954.05;1752413;81;25834;-67
2021/10/12 04:43:13;;;;;;;41.28;14.90;;;;;;;8.72;59.21;100958.57;1756217;80;27572;-63
2021/10/12 04:45:40;;;;;;;34.63;14.07;;;;;;;8.73;59.32;100959.41;1755284;80;25740;-65
2021/10/12 04:48:08;;;;;;;34.63;15.18;;;;;;;8.75;59.34;100958.81;1741694;81;25743;-65
2021/10/12 04:50:38;;;;;;;29.70;14.43;;;;;;;8.77;59.27;100958.21;1745415;81;25863;-63
2021/10/12 04:53:05;;;;;;;47.08;14.65;;;;;;;8.79;60.32;100948.19;1742078;82;25841;-64
2021/10/12 04:55:33;;;;;;;31.82;14.23;;;;;;;8.74;61.16;100948.55;1741548;82;27489;-64
2021/10/12 04:57:59;;;;;;;31.65;12.98;;;;;;;8.71;61.26;100954.17;1742870;80;25757;-64
2021/10/12 05:00:27;;;;;;;32.73;13.55;;;;;;;8.68;61.12;100951.72;1757271;81;25830;-64
2021/10/12 05:02:54;;;;;;;42.85;15.03;;;;;;;8.69;60.68;100948.57;1749123;81;25800;-64
2021/10/12 05:05:31;;;;;;;43.28;14.73;;;;;;;8.73;60.75;100948.21;1756884;81;25733;-66
2021/10/12 05:08:02;;;;;;;36.63;13.85;;;;;;;8.83;60.99;100943.47;1730084;82;26373;-63
2021/10/12 05:10:29;;;;;;;37.95;14.98;;;;;;;8.99;61.09;100945.77;1728048;81;26449;-65
2021/10/12 05:12:56;;;;;;;44.48;16.90;;;;;;;9.11;60.84;100950.17;1748174;80;25903;-64
2021/10/12 05:15:30;;;;;;;45.73;15.55;;;;;;;9.23;60.72;100944.30;1742533;80;25760;-64
2021/10/12 05:17:57;;;;;;;31.97;13.48;;;;;;;9.36;60.63;100939.67;1743699;81;25885;-64
2021/10/12 05:20:27;;;;;;;39.30;13.95;;;;;;;9.50;60.28;100949.27;1704108;81;28150;-65
2021/10/12 05:22:54;;;;;;;45.52;15.23;;;;;;;9.58;59.85;100951.84;1728369;82;25921;-64
2021/10/12 05:25:21;;;;;;;33.33;15.28;;;;;;;9.67;59.54;100948.40;1735169;82;26702;-64
2021/10/12 05:27:48;;;;;;;46.60;15.28;;;;;;;9.79;59.33;100947.37;1730701;82;25775;-64
2021/10/12 05:30:15;;;;;;;41.55;15.60;;;;;;;9.82;58.69;100951.63;1730711;82;25843;-64
2021/10/12 05:32:43;;;;;;;31.30;15.23;;;;;;;9.87;58.51;100953.46;1735982;82;27529;-64
2021/10/12 05:35:10;;;;;;;37.40;14.78;;;;;;;9.89;58.22;100955.54;1736121;82;25777;-64
2021/10/12 05:37:37;;;;;;;41.33;16.55;;;;;;;9.95;58.11;100955.52;1737033;81;25774;-64
2021/10/12 05:40:09;;;;;;;47.55;16.10;;;;;;;10.02;57.89;100952.68;1743902;80;25795;-65
2021/10/12 05:42:36;;;;;;;54.77;15.40;;;;;;;10.09;57.52;100960.59;1754743;80;25898;-65
2021/10/12 05:45:05;;;;;;;58.58;19.70;;;;;;;10.12;57.17;100953.62;1745070;81;27863;-65
2021/10/12 05:47:32;;;;;;;55.88;18.52;;;;;;;10.16;57.00;100954.22;1747839;81;25809;-64
2021/10/12 05:49:59;;;;;;;50.58;17.67;;;;;;;10.22;56.61;100951.00;1756350;81;25948;-65
2021/10/12 05:52:26;;;;;;;48.52;18.75;;;;;;;10.27;56.15;100960.02;1751020;81;26478;-64
2021/10/12 05:55:06;;;;;;;60.70;19.20;;;;;;;10.26;56.02;100959.19;1751824;80;26316;-64
2021/10/12 05:57:37;;;;;;;68.33;20.48;;;;;;;10.25;55.86;100950.75;1760526;80;27419;-65
2021/10/12 06:00:05;;;;;;;53.15;20.82;;;;;;;10.29;55.71;100949.49;1735462;82;25791;-64
2021/10/12 06:02:34;;;;;;;51.18;20.23;;;;;;;10.32;55.54;100953.28;1732086;82;25781;-63
2021/10/12 06:05:01;;;;;;;53.60;18.48;;;;;;;10.39;55.26;100958.16;1734034;82;26458;-63
2021/10/12 06:07:28;;;;;;;54.27;20.00;;;;;;;10.44;55.15;100951.91;1734081;80;26490;-63
2021/10/12 06:09:55;;;;;;;61.50;22.05;;;;;;;10.50;54.91;100955.41;1735876;82;26881;-64
2021/10/12 06:12:22;;;;;;;60.52;20.08;;;;;;;10.59;54.41;100957.79;1745410;80;25739;-64
2021/10/12 06:14:49;;;;;;;66.95;22.05;;;;;;;10.65;54.23;100951.91;1734710;82;25720;-66
2021/10/12 06:17:16;;;;;;;62.20;23.73;;;;;;;10.72;53.94;100950.85;1735869;82;26157;-63
2021/10/12 06:19:43;;;;;;;63.73;22.60;;;;;;;10.74;53.47;100952.45;1738681;82;25811;-64
2021/10/12 06:22:12;;;;;;;68.33;22.45;;;;;;;10.77;53.24;100954.86;1737994;82;27487;-65
2021/10/12 06:24:39;;;;;;;63.33;23.30;;;;;;;10.80;53.22;100954.60;1736266;82;25847;-64
2021/10/12 06:27:06;;;;;;;60.98;25.32;;;;;;;10.85;53.09;100953.36;1734795;81;25802;-64
2021/10/12 06:29:32;;;;;;;67.90;23.12;;;;;;;10.88;52.78;100951.73;1732149;82;25773;-65
2021/10/12 06:31:59;;;;;;;49.50;21.95;;;;;;;10.89;52.77;100956.97;1731714;82;25812;-65
2021/10/12 06:34:27;;;;;;;69.92;23.77;;;;;;;10.91;52.44;100959.55;1731806;82;27489;-65
2021/10/12 06:36:53;;;;;;;57.33;21.42;;;;;;;10.91;52.24;100952.31;1742009;81;26497;-65
2021/10/12 06:39:20;;;;;;;59.67;21.05;;;;;;;10.93;52.27;100947.66;1762716;81;26385;-66
2021/10/12 06:41:47;;;;;;;57.25;21.97;;;;;;;10.99;52.07;100953.47;1762989;81;25800;-65
2021/10/12 06:44:15;;;;;;;49.18;20.95;;;;;;;11.04;51.44;100945.86;1757799;81;26382;-63
2021/10/12 06:46:41;;;;;;;50.10;20.75;;;;;;;11.11;51.02;100939.81;1748283;82;27483;-65
2021/10/12 06:49:09;;;;;;;60.92;24.82;;;;;;;11.23;51.01;100938.34;1748162;82;26511;-65
2021/10/12 06:51:36;;;;;;;52.70;22.77;;;;;;;11.34;50.88;100936.06;1754308;81;25758;-65
2021/10/12 06:54:03;;;;;;;58.25;22.27;;;;;;;11.45;50.64;100941.83;1753009;81;25819;-64
2021/10/12 06:56:32;;;;;;;58.38;21.85;;;;;;;11.55;50.47;100936.81;1754031;81;25782;-64
2021/10/12 06:59:00;;;;;;;56.90;21.12;;;;;;;11.65;50.33;100931.94;1752399;81;27501;-64
2021/10/12 07:01:27;;;;;;;58.98;22.17;;;;;;;11.75;50.15;100937.69;1733344;81;25791;-64
2021/10/12 07:03:54;;;;;;;57.58;21.60;;;;;;;11.84;49.18;100936.48;1739978;81;25839;-64
2021/10/12 07:06:21;;;;;;;68.65;22.50;;;;;;;11.89;48.59;100940.47;1729739;81;25849;-64
2021/10/12 07:08:47;;;;;;;48.35;22.10;;;;;;;11.97;48.79;100951.07;1754092;81;25839;-65
2021/10/12 07:11:14;;;;;;;48.75;21.85;;;;;;;12.07;48.65;100949.23;1754191;80;27482;-65
2021/10/12 07:13:41;;;;;;;62.20;22.17;;;;;;;12.13;47.89;100954.08;1752172;79;26478;-64
2021/10/12 07:16:08;;;;;;;74.12;23.60;;;;;;;12.21;48.04;100950.66;1753919;81;26386;-64
2021/10/12 07:18:35;;;;;;;64.05;23.20;;;;;;;12.29;47.29;100948.60;1754085;81;25786;-65
2021/10/12 07:21:02;;;;;;;69.17;23.07;;;;;;;12.32;46.95;100952.37;1748632;81;25708;-65
2021/10/12 07:23:29;;;;;;;105.58;43.08;;;;;;;12.36;47.10;100949.73;1754446;81;27899;-65
2021/10/12 07:26:04;;;;;;;96.05;38.98;;;;;;;12.44;46.79;100947.67;1753849;81;26153;-66
2021/10/12 07:28:31;;;;;;;68.33;25.05;;;;;;;12.53;46.78;100948.16;1753492;81;25794;-66
2021/10/12 07:31:03;;;;;;;76.60;24.45;;;;;;;12.56;46.33;100947.00;1753038;81;25976;-65
2021/10/12 07:33:26;;;;;;;60.67;25.40;;;;;;;12.60;45.42;100949.75;1750025;81;25826;-72
2021/10/12 07:35:53;;;;;;;68.57;25.95;;;;;;;12.62;45.24;100936.48;1753487;81;27441;-67
2021/10/12 07:38:20;;;;;;;68.17;25.17;;;;;;;12.66;45.74;100943.28;1753493;79;26067;-66
2021/10/12 07:40:47;;;;;;;67.50;25.12;;;;;;;12.77;45.94;100939.58;1753833;81;25920;-66
2021/10/12 07:43:14;;;;;;;65.12;22.42;;;;;;;12.80;44.90;100940.62;1753846;80;26184;-68
2021/10/12 07:45:41;;;;;;;63.35;21.50;;;;;;;12.80;45.04;100945.18;1753550;81;25813;-66
2021/10/12 07:48:08;;;;;;;62.80;22.00;;;;;;;12.84;44.73;100945.22;1753857;81;29602;-64
2021/10/12 07:50:35;;;;;;;67.82;22.22;;;;;;;12.81;45.04;100944.19;1738877;81;26572;-65
2021/10/12 07:53:02;;;;;;;59.27;24.23;;;;;;;12.86;45.42;100941.05;1739930;81;25894;-65
2021/10/12 07:55:40;;;;;;;64.37;24.18;;;;;;;12.90;45.89;100939.73;1741073;82;26484;-64
2021/10/12 07:58:04;;;;;;;48.65;21.55;;;;;;;12.81;46.02;100938.27;1732009;81;25921;-66
2021/10/12 08:00:33;;;;;;;47.03;21.37;;;;;;;12.75;46.47;100928.55;1737315;81;27551;-68
2021/10/12 08:03:02;;;;;;;54.03;22.75;;;;;;;12.70;46.96;100927.64;1737491;81;25768;-64
2021/10/12 08:05:32;;;;;;;48.05;21.27;;;;;;;12.58;47.20;100928.31;1737201;80;25759;-64
2021/10/12 08:07:59;;;;;;;37.03;17.70;;;;;;;12.58;47.66;100927.48;1758370;81;26456;-65
2021/10/12 08:10:26;;;;;;;44.55;17.27;;;;;;;12.57;48.12;100932.01;1747345;81;25819;-64
2021/10/12 08:13:00;;;;;;;39.08;16.07;;;;;;;12.57;47.94;100924.42;1765852;80;27442;-65
2021/10/12 08:15:22;;;;;;;40.15;16.67;;;;;;;12.62;48.17;100926.17;1761856;80;26360;-64
2021/10/12 08:17:49;;;;;;;42.98;15.25;;;;;;;12.64;48.16;100923.67;1762482;80;25801;-64
2021/10/12 08:20:16;;;;;;;32.38;15.65;;;;;;;12.73;48.29;100931.92;1731058;82;25796;-65
2021/10/12 08:22:43;;;;;;;32.13;15.95;;;;;;;12.62;48.10;100931.09;1750648;81;25807;-65
2021/10/12 08:25:11;;;;;;;39.83;14.90;;;;;;;12.65;48.36;100936.17;1757266;79;27428;-65
2021/10/12 08:27:39;;;;;;;33.40;14.15;;;;;;;12.68;48.32;100933.20;1735183;79;25824;-63
2021/10/12 08:30:10;;;;;;;35.33;15.70;;;;;;;12.64;48.52;100947.97;1748844;81;25776;-65
2021/10/12 08:32:38;;;;;;;37.63;15.30;;;;;;;12.64;48.65;100947.12;1738261;81;26409;-65
2021/10/12 08:35:10;;;;;;;36.85;16.37;;;;;;;12.72;48.60;100935.61;1753340;81;25818;-64
2021/10/12 08:37:39;;;;;;;44.27;16.93;;;;;;;12.80;48.73;100935.73;1753401;79;27211;-65
2021/10/12 08:40:13;;;;;;;40.60;16.05;;;;;;;12.85;48.51;100934.78;1743141;81;25729;-65
2021/10/12 08:42:47;;;;;;;41.18;15.50;;;;;;;12.88;48.38;100923.69;1732723;80;32567;-64
2021/10/12 08:45:17;;;;;;;49.45;17.82;;;;;;;12.81;48.46;100932.04;1740554;81;26402;-64
2021/10/12 08:47:44;;;;;;;36.63;15.63;;;;;;;12.66;48.76;100922.20;1737069;81;25943;-64
2021/10/12 08:50:17;;;;;;;36.13;16.25;;;;;;;12.60;48.84;100916.02;1730711;81;28162;-64
2021/10/12 08:52:47;;;;;;;32.00;15.23;;;;;;;12.68;49.03;100911.60;1732338;81;25797;-66
2021/10/12 08:55:15;;;;;;;51.90;17.98;;;;;;;12.80;48.91;100913.62;1729055;81;25885;-64
2021/10/12 08:57:45;;;;;;;37.08;14.85;;;;;;;12.82;48.84;100908.06;1730028;81;25835;-64
2021/10/12 09:00:16;;;;;;;45.70;16.35;;;;;;;12.91;48.48;100910.39;1731093;81;25799;-64
2021/10/12 09:06:00;;;;;;;46.35;16.73;;;;;;;13.02;48.06;100891.79;1728215;81;25727;-65
2021/10/12 09:08:30;;;;;;;48.38;15.90;;;;;;;13.23;47.84;100896.94;1733803;80;25764;-63
2021/10/12 09:10:59;;;;;;;46.08;16.97;;;;;;;13.51;47.68;100890.19;1731921;81;25774;-65
2021/10/12 09:13:27;;;;;;;35.17;15.18;;;;;;;13.59;46.04;100893.84;1733698;81;25835;-66
2021/10/12 09:16:12;;;;;;;32.90;14.35;;;;;;;13.75;45.62;100889.59;1708857;82;27450;-65
2021/10/12 09:18:55;;;;;;;33.05;15.25;;;;;;;13.97;45.96;100886.09;1729065;81;26089;-65
2021/10/12 09:21:36;;;;;;;42.98;15.28;;;;;;;14.39;45.32;100881.34;1727596;81;25902;-64
2021/10/12 09:24:12;;;;;;;46.90;15.60;;;;;;;14.78;44.51;100870.59;1730951;82;53605;-64
2021/10/12 09:26:43;;;;;;;31.20;15.38;;;;;;;15.16;44.22;100866.52;1732823;81;25763;-66
2021/10/12 09:29:26;;;;;;;45.43;16.55;;;;;;;15.30;43.11;100865.04;1733375;81;27422;-65
2021/10/12 09:31:59;;;;;;;45.48;16.37;;;;;;;15.51;43.30;100866.98;1726831;81;25800;-64
2021/10/12 09:34:31;;;;;;;50.40;17.52;;;;;;;15.71;42.34;100859.38;1732941;81;25836;-65
2021/10/12 09:36:56;;;;;;;46.53;16.90;;;;;;;15.86;41.61;100860.42;1735409;81;26516;-65
2021/10/12 09:39:39;;;;;;;43.48;17.65;;;;;;;15.94;41.75;100862.30;1732899;81;25939;-65
2021/10/12 09:42:16;;;;;;;50.28;20.10;;;;;;;16.09;41.19;100857.05;1732919;81;27533;-66
2021/10/12 09:44:57;;;;;;;55.73;21.23;;;;;;;16.11;40.18;100857.21;1715032;82;25736;-67
2021/10/12 09:47:27;;;;;;;36.48;18.30;;;;;;;16.03;40.37;100858.58;1730021;82;26505;-64
2021/10/12 09:50:14;;;;;;;51.77;19.30;;;;;;;16.04;40.60;100856.20;1734110;81;26554;-64
2021/10/12 09:52:52;;;;;;;43.80;18.00;;;;;;;16.18;40.42;100847.85;1737425;82;27713;-64
2021/10/12 09:55:15;;;;;;;36.45;17.40;;;;;;;16.26;40.17;100846.52;1729792;80;27491;-65
2021/10/12 09:57:42;;;;;;;37.38;17.62;;;;;;;16.31;39.70;100837.86;1763209;79;26683;-63
2021/10/12 10:00:11;;;;;;;46.20;18.07;;;;;;;16.28;39.11;100847.16;1762354;80;25838;-65
2021/10/12 10:02:43;;;;;;;52.98;17.95;;;;;;;16.27;39.36;100841.92;1759891;80;26183;-66
2021/10/12 10:05:10;;;;;;;39.38;18.50;;;;;;;16.30;39.49;100835.29;1755918;80;25804;-65
2021/10/12 10:07:44;;;;;;;40.20;17.60;;;;;;;16.48;39.55;100831.02;1735501;80;27473;-65
2021/10/12 10:10:15;;;;;;;47.62;18.52;;;;;;;16.62;39.45;100832.17;1740297;79;25702;-65
2021/10/12 10:12:42;;;;;;;36.00;17.10;;;;;;;16.48;38.27;100822.36;1765946;80;25739;-66
2021/10/12 10:15:09;;;;;;;49.53;17.92;;;;;;;16.57;38.90;100809.09;1736280;82;25784;-66
2021/10/12 10:17:37;;;;;;;40.85;17.85;;;;;;;16.64;38.19;100814.67;1737449;81;25728;-65
2021/10/12 10:20:07;;;;;;;38.10;17.30;;;;;;;16.61;38.14;100797.89;1773014;79;28162;-64
2021/10/12 10:22:44;;;;;;;41.95;17.40;;;;;;;16.78;37.88;100799.52;1758290;81;25724;-65
2021/10/12 10:25:37;;;;;;;40.52;17.77;;;;;;;16.88;37.77;100791.14;1768915;80;26529;-64
2021/10/12 10:28:25;;;;;;;48.20;18.27;;;;;;;16.90;37.13;100789.93;1759254;79;26149;-65
2021/10/12 10:31:02;;;;;;;37.90;18.45;;;;;;;16.84;37.97;100796.08;1756976;80;25769;-66
2021/10/12 10:33:35;;;;;;;37.30;19.00;;;;;;;16.82;37.59;100787.78;1764295;80;27458;-65
2021/10/12 10:36:10;;;;;;;46.08;18.32;;;;;;;16.86;37.84;100785.89;1765963;80;25849;-65
2021/10/12 10:38:45;;;;;;;53.38;19.50;;;;;;;17.23;37.73;100772.63;1764420;80;25775;-66
2021/10/12 10:41:19;;;;;;;46.45;18.42;;;;;;;17.52;37.05;100776.00;1765381;80;25790;-66
2021/10/12 10:43:54;;;;;;;53.65;17.60;;;;;;;17.59;36.74;100776.09;1764360;80;25870;-65
2021/10/12 10:46:35;;;;;;;41.68;18.45;;;;;;;17.81;36.75;100768.94;1735790;80;28196;-65
2021/10/12 10:49:20;;;;;;;43.28;18.10;;;;;;;17.93;36.32;100768.50;1738415;81;25792;-65
2021/10/12 10:52:04;;;;;;;45.43;19.27;;;;;;;18.10;36.24;100771.42;1732667;82;25785;-64
2021/10/12 10:54:43;;;;;;;39.45;18.48;;;;;;;17.97;35.17;100770.70;1729533;80;26336;-64
2021/10/12 10:57:20;;;;;;;38.78;17.73;;;;;;;17.88;36.32;100765.50;1736675;81;25744;-64
2021/10/12 11:00:09;;;;;;;39.73;18.77;;;;;;;18.06;36.14;100763.31;1731988;81;27515;-65
2021/10/12 11:02:45;;;;;;;39.05;18.10;;;;;;;18.17;35.03;100752.97;1741296;81;25720;-65
2021/10/12 11:05:42;;;;;;;43.87;20.15;;;;;;;18.18;35.76;100755.52;1732501;81;25791;-65
2021/10/12 11:08:17;;;;;;;63.78;18.90;;;;;;;18.13;35.45;100750.64;1731615;82;25875;-64
2021/10/12 11:10:49;;;;;;;49.83;21.25;;;;;;;18.11;35.52;100752.70;1732080;82;26480;-64
2021/10/12 11:13:43;;;;;;;53.40;20.48;;;;;;;17.93;35.25;100746.73;1733056;81;27484;-65
2021/10/12 11:16:14;;;;;;;41.92;20.02;;;;;;;17.84;35.30;100744.59;1730891;80;25971;-66
2021/10/12 11:18:46;;;;;;;43.17;21.70;;;;;;;17.77;35.96;100742.28;1739485;81;25642;-66
2021/10/12 11:21:20;;;;;;;48.03;20.90;;;;;;;17.81;36.22;100740.36;1733075;81;25897;-66
2021/10/12 11:23:51;;;;;;;55.58;20.68;;;;;;;17.77;36.18;100736.34;1734966;81;25782;-66
2021/10/12 11:26:21;;;;;;;39.50;20.50;;;;;;;17.67;36.22;100737.94;1736606;82;28723;-65
2021/10/12 11:28:54;;;;;;;50.50;21.10;;;;;;;17.62;36.23;100739.52;1736352;82;25933;-65